Time;durP1;ratioP1;P1;durP2;ratioP2;P2;SDS_P1;SDS_P2;PMS_P1;PMS_P2;Temp;Humidity;BMP_temperature;BMP_pressure;BME280_temperature;BME280_humidity;BME280_pressure;Samples;Min_cycle;Max_cycle;Signal;HPM_P1;HPM_P2
2021/07/31 00:01:01;;;;;;;2.10;1.92;;;;;;;18.41;100.00;99831.53;4950051;28;20227;-73
2021/07/31 00:03:29;;;;;;;2.45;2.00;;;;;;;18.47;100.00;99821.91;4939137;29;20186;-75
2021/07/31 00:05:56;;;;;;;2.38;2.10;;;;;;;18.39;100.00;99822.84;4924779;29;20224;-75
2021/07/31 00:08:21;;;;;;;4.00;1.98;;;;;;;18.39;100.00;99820.09;4951134;29;20184;-75
2021/07/31 00:10:49;;;;;;;2.20;2.00;;;;;;;18.35;100.00;99816.41;4947023;28;20758;-74
2021/07/31 00:13:15;;;;;;;2.10;1.90;;;;;;;18.40;100.00;99812.63;4938671;29;20183;-74
2021/07/31 00:15:40;;;;;;;2.28;2.08;;;;;;;18.31;100.00;99807.22;4950825;29;20356;-74
2021/07/31 00:18:06;;;;;;;2.70;1.90;;;;;;;18.42;100.00;99799.31;4937429;29;20207;-75
2021/07/31 00:20:36;;;;;;;2.10;1.90;;;;;;;18.29;100.00;99790.28;4957461;28;20233;-75
2021/07/31 00:23:02;;;;;;;2.50;1.80;;;;;;;18.43;100.00;99790.75;4957851;28;20574;-74
2021/07/31 00:25:28;;;;;;;2.00;1.80;;;;;;;18.28;100.00;99787.88;4963084;28;20228;-75
2021/07/31 00:27:54;;;;;;;2.75;1.92;;;;;;;18.26;100.00;99782.72;4918561;29;20204;-74
2021/07/31 00:30:24;;;;;;;2.58;1.98;;;;;;;18.24;100.00;99793.28;4928397;28;20207;-74
2021/07/31 00:32:55;;;;;;;2.83;1.70;;;;;;;18.11;100.00;99788.09;4972252;28;20751;-74
2021/07/31 00:35:20;;;;;;;1.83;1.65;;;;;;;18.18;100.00;99789.13;4949800;28;20656;-75
2021/07/31 00:37:49;;;;;;;2.22;2.03;;;;;;;18.23;100.00;99797.16;4935058;29;20212;-74
2021/07/31 00:40:14;;;;;;;2.05;1.85;;;;;;;18.22;100.00;99790.06;4938423;28;20183;-74
2021/07/31 00:42:42;;;;;;;3.65;2.03;;;;;;;18.11;100.00;99788.09;4970606;28;20187;-74
2021/07/31 00:45:09;;;;;;;2.30;1.70;;;;;;;18.11;100.00;99781.78;4951722;28;20183;-74
2021/07/31 00:47:35;;;;;;;2.28;1.98;;;;;;;18.05;100.00;99783.13;4950824;28;20207;-74
2021/07/31 00:50:03;;;;;;;3.45;1.90;;;;;;;17.88;100.00;99780.59;4934631;29;20618;-74
2021/07/31 00:52:32;;;;;;;5.47;1.85;;;;;;;17.73;100.00;99784.00;4952878;28;20238;-74
2021/07/31 00:54:58;;;;;;;1.85;1.67;;;;;;;17.70;100.00;99776.44;4954387;28;20241;-74
2021/07/31 00:57:26;;;;;;;2.40;1.60;;;;;;;17.73;100.00;99779.31;4934506;29;20233;-73
2021/07/31 01:00:21;;;;;;;2.10;1.63;;;;;;;17.75;100.00;99767.97;4934915;28;20215;-73
2021/07/31 01:02:47;;;;;;;2.60;1.90;;;;;;;17.74;100.00;99774.59;4921981;29;20190;-73
2021/07/31 01:05:13;;;;;;;2.08;1.90;;;;;;;17.76;100.00;99775.06;4953104;28;20206;-74
2021/07/31 01:07:41;;;;;;;2.10;1.90;;;;;;;17.70;100.00;99770.13;4918538;29;20250;-73
2021/07/31 01:10:08;;;;;;;2.08;1.88;;;;;;;17.61;100.00;99778.47;4949116;29;20589;-74
2021/07/31 01:12:39;;;;;;;3.10;1.60;;;;;;;17.66;100.00;99783.75;4968580;28;20183;-73
2021/07/31 01:15:11;;;;;;;2.65;2.10;;;;;;;17.59;100.00;99780.75;4923012;28;20187;-74
2021/07/31 01:17:39;;;;;;;2.33;2.00;;;;;;;17.65;100.00;99787.63;4934531;29;20212;-73
2021/07/31 01:20:07;;;;;;;4.13;2.20;;;;;;;17.45;100.00;99783.00;4933401;29;20313;-73
2021/07/31 01:22:35;;;;;;;1.80;1.70;;;;;;;17.44;100.00;99786.09;4966392;28;20242;-73
2021/07/31 01:25:08;;;;;;;3.38;2.00;;;;;;;17.54;100.00;99772.72;4938215;28;20254;-74
2021/07/31 01:27:36;;;;;;;3.17;2.00;;;;;;;17.60;100.00;99782.38;4952992;28;20289;-74
2021/07/31 01:30:02;;;;;;;2.70;2.00;;;;;;;17.56;100.00;99781.41;4933730;29;20712;-73
2021/07/31 01:32:28;;;;;;;2.97;2.05;;;;;;;17.62;100.00;99784.75;4948148;29;20294;-73
2021/07/31 01:34:58;;;;;;;3.72;1.95;;;;;;;17.60;100.00;99785.13;4954323;28;20183;-73
2021/07/31 01:37:26;;;;;;;4.03;2.47;;;;;;;17.71;100.00;99780.78;4923532;29;20632;-73
2021/07/31 01:39:52;;;;;;;1.90;1.80;;;;;;;17.63;100.00;99776.16;4949222;29;20194;-73
2021/07/31 01:42:18;;;;;;;2.20;1.73;;;;;;;17.57;100.00;99780.28;4961006;28;20225;-74
2021/07/31 01:44:44;;;;;;;2.58;1.83;;;;;;;17.64;100.00;99786.03;4921236;29;20234;-73
2021/07/31 01:47:14;;;;;;;2.35;1.67;;;;;;;17.56;100.00;99778.66;4923168;29;20570;-73
2021/07/31 01:49:41;;;;;;;3.38;1.90;;;;;;;17.63;100.00;99787.16;4914839;29;20191;-74
2021/07/31 01:52:08;;;;;;;2.35;1.60;;;;;;;17.53;100.00;99779.34;4948370;28;20214;-73
2021/07/31 01:54:37;;;;;;;1.98;1.85;;;;;;;17.50;100.00;99777.28;4937209;28;20725;-73
2021/07/31 01:57:03;;;;;;;2.25;1.75;;;;;;;17.35;100.00;99780.66;4943979;28;20251;-74
2021/07/31 01:59:51;;;;;;;2.17;1.92;;;;;;;17.41;100.00;99771.06;4946720;29;20200;-74
2021/07/31 02:02:18;;;;;;;3.33;1.73;;;;;;;17.35;100.00;99768.88;4933444;29;20222;-73
2021/07/31 02:04:57;;;;;;;3.40;1.98;;;;;;;17.38;100.00;99770.97;4949213;28;20187;-74
2021/07/31 02:07:24;;;;;;;2.58;1.40;;;;;;;17.28;100.00;99763.13;4957775;28;20358;-74
2021/07/31 02:09:54;;;;;;;3.50;2.10;;;;;;;17.19;100.00;99751.44;4936735;28;20669;-73
2021/07/31 02:12:23;;;;;;;2.88;1.80;;;;;;;17.03;100.00;99755.09;4948502;29;20219;-73
2021/07/31 02:14:50;;;;;;;2.60;1.80;;;;;;;17.06;100.00;99746.19;4933141;29;20366;-74
2021/07/31 02:17:22;;;;;;;5.95;2.00;;;;;;;16.94;100.00;99748.91;4951801;28;20226;-74
2021/07/31 02:19:49;;;;;;;2.30;1.88;;;;;;;16.95;100.00;99753.22;4952712;28;20222;-74
2021/07/31 02:22:37;;;;;;;1.98;1.77;;;;;;;16.91;100.00;99746.81;4946224;29;20290;-74
2021/07/31 02:25:46;;;;;;;2.03;1.70;;;;;;;16.98;100.00;99739.66;4942141;28;20215;-73
2021/07/31 02:28:32;;;;;;;2.20;1.83;;;;;;;16.85;100.00;99742.69;4931309;29;20207;-73
2021/07/31 02:30:59;;;;;;;3.58;1.92;;;;;;;16.93;100.00;99739.06;4944536;28;20254;-73
2021/07/31 02:33:25;;;;;;;2.40;1.80;;;;;;;16.89;100.00;99737.31;4937893;29;20219;-73
2021/07/31 02:36:06;;;;;;;1.85;1.75;;;;;;;16.77;100.00;99740.78;4947848;28;20230;-73
2021/07/31 02:39:01;;;;;;;3.05;1.90;;;;;;;16.78;100.00;99736.91;4949981;29;20223;-74
2021/07/31 02:41:32;;;;;;;2.22;1.80;;;;;;;16.72;100.00;99735.53;4967591;28;20705;-73
2021/07/31 02:44:02;;;;;;;3.67;1.90;;;;;;;16.78;100.00;99741.59;4935609;29;20183;-73
2021/07/31 02:46:27;;;;;;;3.13;1.90;;;;;;;16.85;100.00;99736.38;4948787;28;20628;-73
2021/07/31 02:48:53;;;;;;;2.17;1.90;;;;;;;16.83;100.00;99738.66;4948329;29;20183;-74
2021/07/31 02:51:22;;;;;;;3.17;1.83;;;;;;;16.77;100.00;99738.03;4951677;28;20235;-73
2021/07/31 02:54:10;;;;;;;2.95;1.60;;;;;;;16.71;100.00;99731.16;4935580;29;20204;-74
2021/07/31 02:56:38;;;;;;;2.75;1.85;;;;;;;16.93;100.00;99733.56;4932387;29;20231;-74
2021/07/31 02:59:13;;;;;;;1.60;1.48;;;;;;;16.86;100.00;99730.56;4948845;29;20183;-74
2021/07/31 03:01:44;;;;;;;2.35;1.60;;;;;;;16.94;100.00;99721.47;4951443;29;20258;-73
2021/07/31 03:04:11;;;;;;;2.20;1.70;;;;;;;16.91;100.00;99730.34;4920847;29;20188;-74
2021/07/31 03:06:39;;;;;;;4.10;1.88;;;;;;;16.85;100.00;99728.97;4932685;29;20231;-74
2021/07/31 03:09:08;;;;;;;2.28;1.75;;;;;;;16.94;100.00;99730.50;4928768;29;20211;-74
2021/07/31 03:11:37;;;;;;;1.58;1.48;;;;;;;17.12;100.00;99725.63;4913170;29;20228;-73
2021/07/31 03:14:06;;;;;;;3.70;1.70;;;;;;;17.02;100.00;99728.81;4913729;29;20214;-74
2021/07/31 03:16:35;;;;;;;3.03;1.73;;;;;;;16.94;100.00;99725.00;4932649;29;20228;-74
2021/07/31 03:19:04;;;;;;;2.45;1.55;;;;;;;16.99;100.00;99721.25;4928521;28;20193;-73
2021/07/31 03:21:29;;;;;;;3.53;1.60;;;;;;;17.05;100.00;99714.41;4939180;28;20219;-73
2021/07/31 03:24:14;;;;;;;5.55;1.80;;;;;;;17.09;100.00;99720.84;4925325;29;20188;-73
2021/07/31 03:26:44;;;;;;;4.18;1.73;;;;;;;16.92;100.00;99715.47;4932363;29;20648;-73
2021/07/31 03:29:17;;;;;;;1.65;1.45;;;;;;;16.91;100.00;99716.63;4945240;28;20195;-75
2021/07/31 03:31:43;;;;;;;1.60;1.50;;;;;;;16.83;100.00;99717.53;4938977;29;20234;-74
2021/07/31 03:34:16;;;;;;;2.85;1.50;;;;;;;16.89;100.00;99710.69;4939538;29;20693;-73
2021/07/31 03:36:51;;;;;;;2.13;1.50;;;;;;;17.07;100.00;99720.38;4917887;29;20239;-73
2021/07/31 03:39:22;;;;;;;4.47;1.77;;;;;;;17.05;100.00;99707.00;4941455;29;20672;-73
2021/07/31 03:41:49;;;;;;;3.80;1.60;;;;;;;17.12;100.00;99706.41;4939332;29;20223;-74
2021/07/31 03:44:15;;;;;;;2.85;1.50;;;;;;;17.00;100.00;99709.13;4956633;28;20184;-73
2021/07/31 03:46:45;;;;;;;2.17;1.50;;;;;;;17.09;100.00;99707.91;4916444;28;20229;-73
2021/07/31 03:49:12;;;;;;;2.33;1.60;;;;;;;17.21;100.00;99707.19;4937347;28;20676;-73
2021/07/31 03:51:39;;;;;;;3.85;1.50;;;;;;;17.12;100.00;99711.91;4938961;29;20620;-73
2021/07/31 03:54:05;;;;;;;4.80;1.58;;;;;;;17.22;100.00;99706.06;4920294;29;20676;-73
2021/07/31 03:56:31;;;;;;;4.00;1.88;;;;;;;17.17;100.00;99703.50;4935702;28;20228;-73
2021/07/31 03:59:02;;;;;;;3.25;1.63;;;;;;;17.10;100.00;99705.97;4954577;29;20320;-72
2021/07/31 04:01:29;;;;;;;1.75;1.55;;;;;;;16.91;100.00;99702.91;4954992;28;20237;-72
2021/07/31 04:04:02;;;;;;;3.97;1.58;;;;;;;17.03;100.00;99702.97;4915499;29;20191;-72
2021/07/31 04:06:32;;;;;;;4.97;1.88;;;;;;;16.89;100.00;99705.19;4935191;29;20262;-72
2021/07/31 04:09:29;;;;;;;2.78;1.40;;;;;;;16.94;100.00;99705.00;4920560;29;20656;-72
2021/07/31 04:12:14;;;;;;;4.03;1.60;;;;;;;17.01;100.00;99703.31;4949392;29;20235;-74
2021/07/31 04:14:58;;;;;;;2.40;1.20;;;;;;;16.93;100.00;99700.63;4950059;29;20287;-73
2021/07/31 04:17:26;;;;;;;3.05;2.00;;;;;;;16.99;100.00;99696.53;4934973;28;20630;-73
2021/07/31 04:19:55;;;;;;;3.65;1.55;;;;;;;17.01;100.00;99699.75;4919531;29;20669;-75
2021/07/31 04:22:24;;;;;;;2.33;1.63;;;;;;;17.05;100.00;99695.19;4948441;29;20220;-75
2021/07/31 04:24:53;;;;;;;3.25;1.38;;;;;;;17.00;100.00;99687.97;4961262;28;20190;-74
2021/07/31 04:27:20;;;;;;;2.75;1.58;;;;;;;17.17;100.00;99689.78;4935133;28;20231;-73
2021/07/31 04:29:45;;;;;;;5.75;1.70;;;;;;;17.16;100.00;99693.63;4933808;29;20196;-74
2021/07/31 04:32:13;;;;;;;2.53;1.25;;;;;;;17.01;100.00;99697.00;4934983;29;20263;-72
2021/07/31 04:34:41;;;;;;;5.28;1.30;;;;;;;17.00;100.00;99698.16;4922181;29;20680;-72
2021/07/31 04:37:09;;;;;;;2.50;1.90;;;;;;;17.01;100.00;99691.50;4918563;29;20223;-72
2021/07/31 04:39:37;;;;;;;3.78;1.40;;;;;;;17.00;100.00;99684.44;4914142;29;20194;-72
2021/07/31 04:42:08;;;;;;;2.90;1.35;;;;;;;16.96;100.00;99686.25;4916788;29;20234;-72
2021/07/31 04:44:38;;;;;;;3.95;1.60;;;;;;;17.10;100.00;99684.00;4944303;28;20228;-72
2021/07/31 04:47:08;;;;;;;3.80;1.60;;;;;;;17.07;100.00;99690.19;4921984;29;20230;-73
2021/07/31 04:49:36;;;;;;;2.75;1.40;;;;;;;17.13;100.00;99691.56;4960784;28;20657;-73
2021/07/31 04:52:02;;;;;;;3.30;1.60;;;;;;;17.12;100.00;99687.22;4897973;29;20233;-73
2021/07/31 04:54:29;;;;;;;3.72;1.85;;;;;;;17.11;100.00;99691.13;4922424;29;20222;-71
2021/07/31 04:56:56;;;;;;;3.70;1.35;;;;;;;17.23;100.00;99685.69;4921946;29;20265;-73
2021/07/31 04:59:24;;;;;;;3.90;1.73;;;;;;;17.20;100.00;99689.13;4935464;29;20656;-73
2021/07/31 05:01:52;;;;;;;3.45;1.30;;;;;;;17.09;100.00;99683.22;4950327;29;20227;-71
2021/07/31 05:04:20;;;;;;;2.38;1.40;;;;;;;17.33;100.00;99684.09;4951293;29;20203;-73
2021/07/31 05:06:48;;;;;;;3.95;1.48;;;;;;;17.32;100.00;99681.69;4921232;29;20231;-73
2021/07/31 05:09:14;;;;;;;4.13;1.58;;;;;;;17.45;100.00;99673.16;4953810;28;20210;-73
2021/07/31 05:11:45;;;;;;;4.40;1.35;;;;;;;17.51;100.00;99685.53;4918323;29;20653;-72
2021/07/31 05:14:15;;;;;;;2.83;1.33;;;;;;;17.53;100.00;99682.44;4918656;29;20207;-72
2021/07/31 05:16:41;;;;;;;4.28;1.75;;;;;;;17.37;100.00;99678.75;4962811;28;20220;-73
2021/07/31 05:19:07;;;;;;;3.95;1.42;;;;;;;17.33;100.00;99682.53;4949895;29;20309;-73
2021/07/31 05:21:33;;;;;;;5.22;1.90;;;;;;;17.51;100.00;99677.28;4950732;28;20301;-72
2021/07/31 05:23:59;;;;;;;3.42;1.20;;;;;;;17.44;100.00;99685.28;4954673;28;20191;-73
2021/07/31 05:26:24;;;;;;;3.90;1.60;;;;;;;17.58;100.00;99673.97;4950384;28;20295;-73
2021/07/31 05:28:52;;;;;;;5.28;1.50;;;;;;;17.66;100.00;99676.63;4916086;29;20188;-73
2021/07/31 05:31:22;;;;;;;3.85;1.40;;;;;;;17.63;100.00;99671.78;4941860;29;20235;-73
2021/07/31 05:33:48;;;;;;;3.35;1.40;;;;;;;17.73;100.00;99666.66;4953136;28;20199;-73
2021/07/31 05:36:16;;;;;;;4.05;1.40;;;;;;;17.65;100.00;99679.69;4940903;29;20234;-73
2021/07/31 05:38:44;;;;;;;4.25;1.38;;;;;;;17.78;100.00;99673.84;4933023;29;20223;-73
2021/07/31 05:41:19;;;;;;;3.00;1.45;;;;;;;18.00;100.00;99667.91;4960376;28;20889;-74
2021/07/31 05:43:45;;;;;;;3.55;1.50;;;;;;;18.09;100.00;99674.91;4953358;28;20193;-73
2021/07/31 05:46:14;;;;;;;4.18;1.50;;;;;;;18.23;100.00;99667.91;4917305;29;20219;-73
2021/07/31 05:48:44;;;;;;;3.05;1.40;;;;;;;18.36;100.00;99665.97;4949542;29;20236;-73
2021/07/31 05:51:13;;;;;;;4.03;1.40;;;;;;;18.54;100.00;99670.84;4952325;28;20263;-73
2021/07/31 05:53:40;;;;;;;3.95;1.30;;;;;;;18.53;100.00;99672.81;4953385;28;20563;-73
2021/07/31 05:56:11;;;;;;;4.95;1.20;;;;;;;18.73;100.00;99669.03;4944576;28;20216;-73
2021/07/31 05:58:37;;;;;;;3.50;1.40;;;;;;;18.77;100.00;99663.66;4948628;29;20186;-73
2021/07/31 06:01:06;;;;;;;2.58;1.30;;;;;;;18.69;100.00;99670.91;4956462;28;20250;-73
2021/07/31 06:03:35;;;;;;;2.60;1.17;;;;;;;18.60;100.00;99659.22;4937252;29;20214;-73
2021/07/31 06:06:01;;;;;;;3.08;1.30;;;;;;;18.55;100.00;99666.94;4926361;29;20212;-72
2021/07/31 06:08:27;;;;;;;5.30;1.23;;;;;;;18.58;100.00;99669.00;4929943;29;20611;-74
2021/07/31 06:11:00;;;;;;;5.38;1.40;;;;;;;18.69;100.00;99678.38;4939573;28;20314;-74
2021/07/31 06:13:27;;;;;;;3.72;1.23;;;;;;;18.68;100.00;99674.00;4952711;28;20202;-71
2021/07/31 06:15:59;;;;;;;1.92;1.15;;;;;;;18.78;100.00;99660.56;4931740;29;20219;-72
2021/07/31 06:18:27;;;;;;;4.72;1.67;;;;;;;18.68;100.00;99665.75;4933987;29;20194;-72
2021/07/31 06:20:52;;;;;;;3.58;1.67;;;;;;;18.80;100.00;99668.47;4936435;28;20302;-73
2021/07/31 06:23:20;;;;;;;2.90;1.25;;;;;;;18.72;100.00;99652.91;4937209;29;20262;-73
2021/07/31 06:25:46;;;;;;;3.03;1.10;;;;;;;18.91;99.06;99671.16;4949207;29;20222;-72
2021/07/31 06:28:14;;;;;;;2.78;1.40;;;;;;;19.07;99.59;99669.28;4933101;29;20564;-72
2021/07/31 06:30:47;;;;;;;4.65;1.45;;;;;;;18.80;98.36;99658.25;4949048;28;20238;-72
2021/07/31 06:33:16;;;;;;;4.28;1.23;;;;;;;18.97;97.68;99671.72;4953158;28;20191;-72
2021/07/31 06:35:43;;;;;;;3.20;1.40;;;;;;;18.85;97.48;99662.72;4935756;29;20684;-72
2021/07/31 06:38:09;;;;;;;3.90;1.40;;;;;;;18.86;97.78;99665.09;4948773;28;20199;-72
2021/07/31 06:40:37;;;;;;;2.80;1.40;;;;;;;19.01;98.45;99664.38;4948793;29;20274;-74
2021/07/31 06:43:04;;;;;;;3.22;1.40;;;;;;;18.85;99.09;99654.47;4951848;28;20187;-72
2021/07/31 06:45:33;;;;;;;2.85;1.30;;;;;;;18.92;97.95;99664.50;4936358;28;20241;-72
2021/07/31 06:48:03;;;;;;;4.55;1.90;;;;;;;19.01;96.20;99658.88;4917819;29;20294;-71
2021/07/31 06:50:31;;;;;;;3.22;1.40;;;;;;;18.92;97.37;99656.25;4947106;28;20227;-71
2021/07/31 06:52:59;;;;;;;2.75;1.10;;;;;;;18.94;96.25;99662.22;4951864;29;20299;-72
2021/07/31 06:55:24;;;;;;;4.80;1.50;;;;;;;19.22;95.05;99649.25;4936995;28;20187;-73
2021/07/31 06:57:53;;;;;;;2.58;1.50;;;;;;;19.18;95.08;99656.63;4937276;29;20204;-73
2021/07/31 07:00:22;;;;;;;4.43;1.60;;;;;;;19.35;95.17;99650.78;4948070;28;20184;-72
2021/07/31 07:02:52;;;;;;;3.65;1.33;;;;;;;19.39;93.01;99651.66;4946740;29;20250;-73
2021/07/31 07:05:20;;;;;;;2.47;1.40;;;;;;;19.49;90.81;99648.41;4951424;28;20187;-73
2021/07/31 07:07:48;;;;;;;3.30;1.55;;;;;;;19.68;89.40;99641.00;4938752;28;20699;-72
2021/07/31 07:10:14;;;;;;;4.13;1.50;;;;;;;19.89;90.33;99647.88;4916455;28;20188;-72
2021/07/31 07:12:41;;;;;;;3.97;1.70;;;;;;;19.94;91.01;99644.84;4952815;29;20282;-73
2021/07/31 07:15:15;;;;;;;5.20;1.60;;;;;;;19.75;90.00;99641.19;4952605;28;20194;-73
2021/07/31 07:17:41;;;;;;;5.05;1.60;;;;;;;19.50;88.54;99653.53;4947455;28;20587;-72
2021/07/31 07:20:06;;;;;;;2.35;1.40;;;;;;;19.30;90.12;99640.00;4951445;28;20189;-72
2021/07/31 07:22:38;;;;;;;5.50;1.40;;;;;;;19.29;90.70;99638.44;4943099;29;20191;-73
2021/07/31 07:25:06;;;;;;;5.03;1.38;;;;;;;19.29;90.54;99641.19;4933020;29;20187;-70
2021/07/31 07:27:36;;;;;;;13.25;9.90;;;;;;;19.17;90.51;99645.94;4928913;29;20705;-71
2021/07/31 07:30:07;;;;;;;6.45;5.07;;;;;;;19.05;91.46;99649.56;4930319;29;20192;-72
2021/07/31 07:32:35;;;;;;;6.53;4.07;;;;;;;18.91;91.92;99643.63;4931924;29;20220;-73
2021/07/31 07:35:14;;;;;;;3.47;1.63;;;;;;;19.02;95.65;99644.75;4932758;29;20188;-76
2021/07/31 07:37:39;;;;;;;4.68;1.75;;;;;;;18.95;96.82;99640.97;4933358;29;20220;-76
2021/07/31 07:40:06;;;;;;;5.20;1.90;;;;;;;18.64;99.07;99646.41;4945253;29;20263;-77
2021/07/31 07:42:34;;;;;;;2.67;1.42;;;;;;;18.50;100.00;99647.94;4929425;29;20195;-80
2021/07/31 07:44:59;;;;;;;3.90;1.80;;;;;;;18.60;100.00;99650.19;4937496;29;20279;-78
2021/07/31 07:47:25;;;;;;;2.90;1.50;;;;;;;18.61;99.57;99643.53;4944466;28;20605;-79
2021/07/31 07:49:53;;;;;;;6.13;2.22;;;;;;;18.53;97.88;99653.53;4950557;29;20222;-79
2021/07/31 07:52:22;;;;;;;2.53;1.50;;;;;;;18.60;97.21;99650.19;4948056;28;20241;-75
2021/07/31 07:54:52;;;;;;;6.32;1.83;;;;;;;18.61;96.70;99660.84;4949528;29;20192;-79
2021/07/31 07:57:19;;;;;;;2.13;1.52;;;;;;;18.61;96.71;99660.84;4931967;29;20230;-77
2021/07/31 07:59:47;;;;;;;2.70;1.75;;;;;;;18.49;97.80;99662.81;4934808;29;20203;-76
2021/07/31 08:02:15;;;;;;;3.42;1.30;;;;;;;18.64;97.08;99664.84;4929666;29;20647;-74
2021/07/31 08:04:44;;;;;;;2.80;1.60;;;;;;;18.56;97.38;99663.03;4918888;29;20203;-73
2021/07/31 08:07:11;;;;;;;4.05;1.83;;;;;;;18.54;97.83;99670.84;4947693;28;20271;-73
2021/07/31 08:09:37;;;;;;;3.15;1.45;;;;;;;18.39;99.21;99668.03;4935033;29;20191;-73
2021/07/31 08:12:04;;;;;;;2.05;1.45;;;;;;;18.64;97.39;99664.84;4933172;29;20294;-72
2021/07/31 08:14:35;;;;;;;3.47;1.55;;;;;;;18.81;96.18;99670.06;4921823;29;20191;-72
2021/07/31 08:17:01;;;;;;;3.83;1.75;;;;;;;18.93;95.75;99659.81;4937693;29;20255;-72
2021/07/31 08:19:27;;;;;;;3.17;1.40;;;;;;;18.98;94.36;99663.13;4934169;29;20188;-71
2021/07/31 08:21:53;;;;;;;2.88;1.48;;;;;;;18.95;94.55;99666.56;4922903;29;20211;-73
2021/07/31 08:24:18;;;;;;;3.63;1.42;;;;;;;18.97;94.61;99675.31;4935419;29;20199;-73
2021/07/31 08:26:45;;;;;;;3.83;1.65;;;;;;;18.96;94.31;99673.66;4952868;28;20235;-76
2021/07/31 08:29:13;;;;;;;4.32;1.60;;;;;;;18.83;93.83;99682.34;4958683;28;20188;-76
2021/07/31 08:31:41;;;;;;;2.92;1.60;;;;;;;19.15;92.45;99671.06;4917679;29;20710;-76
2021/07/31 08:34:11;;;;;;;2.78;1.58;;;;;;;19.19;92.80;99679.44;4916608;29;20200;-75
2021/07/31 08:36:37;;;;;;;1.73;1.35;;;;;;;19.15;93.00;99670.28;4918829;29;20224;-72
2021/07/31 08:39:03;;;;;;;2.38;1.48;;;;;;;19.13;92.10;99667.88;4934756;29;20188;-73
2021/07/31 08:41:34;;;;;;;3.85;1.40;;;;;;;19.57;91.32;99667.50;4939671;29;20902;-73
2021/07/31 08:44:04;;;;;;;5.80;1.52;;;;;;;19.64;89.91;99672.41;4934463;29;20195;-74
2021/07/31 08:46:30;;;;;;;6.60;1.67;;;;;;;19.66;89.24;99670.09;4931124;29;20223;-74
2021/07/31 08:48:58;;;;;;;2.65;1.83;;;;;;;19.57;91.26;99670.25;4923329;29;20704;-73
2021/07/31 08:51:24;;;;;;;2.95;1.90;;;;;;;20.19;88.01;99668.28;4901525;29;20236;-74
2021/07/31 08:53:50;;;;;;;3.83;1.73;;;;;;;20.15;85.35;99684.75;4942988;28;20344;-74
2021/07/31 08:56:15;;;;;;;11.43;10.10;;;;;;;20.14;86.68;99674.06;4949673;28;20223;-76
2021/07/31 08:58:41;;;;;;;22.17;17.25;;;;;;;20.09;87.45;99668.81;4917578;29;20222;-74
2021/07/31 09:01:07;;;;;;;4.18;1.50;;;;;;;20.06;85.60;99669.56;4917366;29;20233;-75
2021/07/31 09:03:58;;;;;;;4.53;1.55;;;;;;;19.80;87.71;99677.56;4950558;29;20179;-74
2021/07/31 09:06:30;;;;;;;2.35;1.60;;;;;;;19.84;87.00;99672.94;4935763;29;20230;-75
2021/07/31 09:08:56;;;;;;;2.60;1.40;;;;;;;19.91;86.08;99678.66;4946869;29;20191;-74
2021/07/31 09:11:22;;;;;;;1.73;1.40;;;;;;;19.98;86.16;99678.81;4915378;28;20626;-74
2021/07/31 09:13:48;;;;;;;3.58;1.60;;;;;;;19.79;85.38;99680.66;4927392;29;20194;-74
2021/07/31 09:16:13;;;;;;;3.35;1.60;;;;;;;19.76;85.45;99679.44;4934461;29;20754;-72
2021/07/31 09:18:45;;;;;;;3.67;1.40;;;;;;;19.86;85.43;99675.34;4918989;29;20188;-75
2021/07/31 09:21:15;;;;;;;3.80;1.70;;;;;;;19.89;85.66;99678.22;4946812;29;20212;-72
2021/07/31 09:23:52;;;;;;;3.00;1.65;;;;;;;20.30;84.78;99686.69;4919598;29;20686;-75
2021/07/31 09:26:25;;;;;;;3.15;1.70;;;;;;;20.43;82.87;99668.06;4921573;29;20223;-73
2021/07/31 09:29:09;;;;;;;2.20;1.40;;;;;;;20.39;82.33;99672.69;4930575;29;20205;-76
2021/07/31 09:31:39;;;;;;;4.32;1.40;;;;;;;20.63;82.22;99665.78;4918161;29;20231;-74
2021/07/31 09:34:08;;;;;;;2.05;1.27;;;;;;;20.62;82.89;99669.72;4954430;28;20183;-72
2021/07/31 09:36:40;;;;;;;1.65;1.20;;;;;;;20.54;81.92;99678.94;4936924;29;20231;-75
2021/07/31 09:39:08;;;;;;;2.65;1.58;;;;;;;20.58;82.64;99666.03;4937185;29;20196;-73
2021/07/31 09:41:36;;;;;;;4.22;1.50;;;;;;;20.09;82.66;99669.66;4941430;29;20643;-73
2021/07/31 09:44:17;;;;;;;1.95;1.60;;;;;;;19.92;84.06;99683.00;4918178;29;20246;-74
2021/07/31 09:47:01;;;;;;;2.30;1.48;;;;;;;19.87;85.73;99672.25;4931356;29;20227;-73
2021/07/31 09:49:29;;;;;;;2.95;1.90;;;;;;;20.02;85.40;99679.72;4909094;29;20194;-73
2021/07/31 09:51:59;;;;;;;2.42;1.58;;;;;;;20.05;84.34;99678.97;4934619;28;20241;-72
2021/07/31 09:54:25;;;;;;;2.83;1.60;;;;;;;20.21;85.86;99668.72;4932449;29;20214;-73
2021/07/31 09:56:54;;;;;;;3.10;1.70;;;;;;;20.42;83.04;99658.97;4945673;28;20625;-71
2021/07/31 09:59:22;;;;;;;2.33;1.38;;;;;;;20.85;81.78;99648.50;4950223;29;20544;-72
2021/07/31 10:02:03;;;;;;;2.67;1.48;;;;;;;21.36;79.82;99668.06;4916029;29;21003;-75
2021/07/31 10:04:34;;;;;;;3.22;1.50;;;;;;;20.99;78.88;99648.78;4935565;29;20234;-75
2021/07/31 10:07:03;;;;;;;4.35;1.73;;;;;;;20.76;80.62;99653.44;4951441;28;20231;-72
2021/07/31 10:09:28;;;;;;;3.03;1.40;;;;;;;20.72;81.30;99660.84;4932893;28;20179;-73
2021/07/31 10:11:56;;;;;;;2.38;1.30;;;;;;;20.62;82.85;99650.41;4931646;29;20231;-73
2021/07/31 10:14:26;;;;;;;3.75;1.88;;;;;;;20.58;80.72;99656.94;4949758;29;20186;-73
2021/07/31 10:16:56;;;;;;;2.58;1.42;;;;;;;20.18;85.15;99685.97;4921347;29;20227;-73
2021/07/31 10:19:24;;;;;;;3.70;1.65;;;;;;;19.02;100.00;99721.84;4967749;28;20191;-72
2021/07/31 10:22:00;;;;;;;5.10;2.42;;;;;;;18.52;100.00;99712.44;4948669;29;20281;-73
2021/07/31 10:24:28;;;;;;;3.35;1.90;;;;;;;17.92;100.00;99721.06;4948058;28;20534;-73
2021/07/31 10:27:15;;;;;;;3.92;2.35;;;;;;;18.13;100.00;99708.81;4951837;28;20227;-73
2021/07/31 10:29:46;;;;;;;5.15;2.92;;;;;;;18.29;100.00;99712.47;4950105;28;20175;-73
2021/07/31 10:32:21;;;;;;;4.30;2.85;;;;;;;18.35;100.00;99722.91;4948582;29;20234;-73
2021/07/31 10:34:58;;;;;;;3.63;2.58;;;;;;;18.30;100.00;99712.13;4936042;29;20194;-73
2021/07/31 10:37:31;;;;;;;6.05;3.22;;;;;;;18.17;100.00;99710.53;4967550;28;20230;-75
2021/07/31 10:40:00;;;;;;;3.10;2.60;;;;;;;18.16;100.00;99719.13;4965750;28;20187;-72
2021/07/31 10:42:26;;;;;;;3.47;2.50;;;;;;;18.21;100.00;99727.94;4917018;29;20224;-72
2021/07/31 10:45:22;;;;;;;3.53;2.50;;;;;;;18.37;100.00;99720.63;4949897;29;20192;-73
2021/07/31 10:47:53;;;;;;;4.00;2.72;;;;;;;18.52;100.00;99706.94;4935716;29;20771;-75
2021/07/31 10:50:27;;;;;;;3.08;2.72;;;;;;;18.91;100.00;99706.16;4947589;28;20227;-73
2021/07/31 10:53:10;;;;;;;2.72;2.53;;;;;;;19.14;100.00;99699.78;4934975;29;20178;-72
2021/07/31 10:55:36;;;;;;;3.17;2.58;;;;;;;19.32;100.00;99699.13;4935534;28;20215;-73
2021/07/31 10:58:01;;;;;;;3.40;2.47;;;;;;;19.34;100.00;99696.81;4952650;28;20842;-73
2021/07/31 11:00:27;;;;;;;2.97;2.47;;;;;;;19.65;100.00;99698.78;4948396;28;20241;-74
2021/07/31 11:02:53;;;;;;;3.75;2.72;;;;;;;19.76;100.00;99695.13;4916750;29;20191;-74
2021/07/31 11:05:21;;;;;;;3.75;2.83;;;;;;;19.65;100.00;99680.31;4949988;28;20191;-73
2021/07/31 11:07:58;;;;;;;2.67;2.30;;;;;;;19.84;100.00;99683.97;4951978;28;20206;-73
2021/07/31 11:10:42;;;;;;;4.15;2.40;;;;;;;19.87;100.00;99687.97;4965736;28;20748;-72
2021/07/31 11:13:10;;;;;;;3.78;2.40;;;;;;;19.92;100.00;99680.22;4948676;29;20348;-73
2021/07/31 11:16:02;;;;;;;3.85;2.42;;;;;;;19.71;100.00;99682.44;4952507;28;20249;-74
2021/07/31 11:18:34;;;;;;;6.05;2.45;;;;;;;19.69;100.00;99693.03;4936745;29;20219;-73
2021/07/31 11:21:07;;;;;;;2.42;1.95;;;;;;;19.60;100.00;99691.59;4957170;28;20221;-73
2021/07/31 11:23:36;;;;;;;4.63;1.92;;;;;;;19.57;100.00;99694.25;4955294;28;20187;-75
2021/07/31 11:26:04;;;;;;;3.05;1.98;;;;;;;19.77;100.00;99700.31;4918602;29;20215;-72
2021/07/31 11:28:33;;;;;;;4.40;2.38;;;;;;;20.31;100.00;99698.50;4934430;29;20187;-72
2021/07/31 11:30:58;;;;;;;2.15;1.40;;;;;;;20.67;100.00;99701.75;4937032;28;20289;-73
2021/07/31 11:33:25;;;;;;;1.83;1.70;;;;;;;20.83;100.00;99689.47;4938796;29;20669;-74
2021/07/31 11:35:54;;;;;;;2.95;1.50;;;;;;;20.98;100.00;99708.72;4933385;29;20222;-75
2021/07/31 11:38:37;;;;;;;1.45;1.33;;;;;;;20.77;99.97;99690.94;4920838;29;20227;-75